Flight Track Log - Related Links

Times and Time Zones

All times are in EDT time to prevent confusion due to time zone crossing. See the N769MB flight status page for this flight to view local times or setup timezone preferences in your user account.

Time Position Orientation Groundspeed Altitude Reporting Facility
EDT Latitude Longitude Course Direction KTS MPH feet Rate Location/Type
Wed 08:11:00 AM 35.8302 -88.3812 319° Northwest  Level FlightAware Approximate
Wed 08:12:00 AM 35.8666 -88.4206 319° Northwest  Level FlightAware Approximate
Wed 08:19:50 AM 35.7617 -88.2822 319° Northwest 273 314 4,000  Level Memphis Center
Wed 08:20:50 AM 35.8106 -88.3322 320° Northwest 248 285 5,500 1,950 Climbing Memphis Center
Wed 08:21:50 AM 35.8403 -88.3725 312° West 202 232 7,900 2,200 Climbing Memphis Center
Wed 08:22:50 AM 35.8722 -88.4100 316° Northwest 166 191 9,900 1,000 Climbing Memphis Center
Wed 08:23:50 AM 35.9147 -88.4681 312° West 186 214 9,900  Level Memphis Center
Wed 08:24:50 AM 35.9658 -88.5283 316° Northwest 226 260 9,900  Level Memphis Center
Wed 08:25:50 AM 36.0167 -88.5836 319° Northwest 243 280 9,900  Level Memphis Center
Wed 08:26:50 AM 36.0631 -88.6342 319° Northwest 243 280 9,900  Level Memphis Center
Wed 08:27:50 AM 36.0703 -88.7006 278° West 206 237 9,900  Level Memphis Center
Wed 08:28:50 AM 36.0631 -88.7753 263° West 205 236 9,900  Level Memphis Center
Wed 08:29:50 AM 36.0533 -88.8475 261° West 211 243 9,900  Level Memphis Center
Wed 08:30:50 AM 36.0439 -88.9194 261° West 222 255 9,900  Level Memphis Center
Wed 08:31:50 AM 36.0217 -88.9867 248° West 222 255 9,900 -250 Level Memphis Center
Wed 08:32:50 AM 35.9994 -89.0561 248° West 222 255 9,400 -1,250 Descending Memphis Center
Wed 08:33:50 AM 35.9733 -89.1336 247° West 236 272 7,400 -2,100 Descending Memphis Center
Wed 08:34:50 AM 35.9489 -89.2161 250° West 250 288 5,200 -2,150 Descending Memphis Center
Wed 08:35:50 AM 35.9247 -89.2983 250° West 256 295 3,100 -1,150 Descending Memphis Center
Wed 08:36:50 AM 35.9003 -89.3731 248° West 251 289 2,900 -100 Descending Memphis Center
Wed 08:37:50 AM 35.8842 -89.4397 253° West 230 265 2,900  Level Memphis Center

Login

Don't have an account? Register now (free) for customized features, flight alerts, and more!